Flight Track Log - Related Links

Times and Time Zones

All times are in EDT time to prevent confusion due to time zone crossing. See the AAL2345 flight status page for this flight to view local times or setup timezone preferences in your user account.

Time Position Orientation Groundspeed Altitude Reporting Facility
EDT Latitude Longitude Course Direction KTS MPH feet Rate Location/Type
Mon 18:54:05 41.9167 -87.9167 164° South 174 200 2,900  Level Chicago TRACON
Mon 18:54:52 41.8692 -87.9453 204° Southwest 226 260 4,300 1,321 Climbing Chicago Center
Mon 18:55:00 41.7487 -88.1822 201° Southwest  Level Estimated
Mon 18:55:54 41.8050 -87.9800 202° Southwest 244 281 5,300  Level Chicago Center
Mon 18:56:00 41.6709 -88.2736 197° South  Level Estimated
Mon 18:56:56 41.7397 -88.0136 201° Southwest 252 290 8,100  Level Chicago Center
Mon 18:57:00 41.5745 -88.2233 159° South  Level FlightAware Approximate
Mon 18:57:58 41.6700 -88.0489 201° Southwest 268 308 10,800  Level Chicago Center
Mon 18:58:00 41.4972 -88.3153 207° Southwest  Level Estimated
Mon 18:59:00 41.3937 -88.2756 164° South  Level FlightAware Approximate
Mon 18:59:00 41.5958 -88.0847 200° South 284 327 13,100  Level Chicago Center
Mon 19:00:05 41.5014 -88.1325 201° Southwest 305 351 15,500 1,606 Climbing Chicago Center
Mon 19:01:07 41.4119 -88.1769 200° South 358 412 16,500 1,839 Climbing Chicago Center
Mon 19:02:09 41.2914 -88.2317 199° South 389 448 19,300 2,274 Climbing Chicago Center
Mon 19:03:11 41.1872 -88.2781 199° South 396 456 21,200 1,790 Climbing Chicago Center
Mon 19:04:13 41.0814 -88.3267 199° South 402 463 23,000 1,632 Climbing Chicago Center
Mon 19:05:16 40.9703 -88.3769 199° South 419 482 24,600 1,536 Climbing Chicago Center
Mon 19:06:18 40.8583 -88.4272 199° South 426 490 26,200 1,742 Climbing Chicago Center
Mon 19:07:20 40.7386 -88.5239 211° Southwest 427 491 28,200 1,790 Climbing Chicago Center
Mon 19:08:22 40.6428 -88.6075 214° Southwest 417 480 29,900 1,452 Climbing Chicago Center
Mon 19:09:24 40.5456 -88.6886 212° Southwest 415 478 31,200 1,016 Climbing Chicago Center
Mon 19:10:26 40.4553 -88.7650 213° Southwest 415 478 32,000 387 Climbing Chicago Center
Mon 19:11:28 40.3375 -88.8636 213° Southwest 416 479 32,000  Level Chicago Center
Mon 19:12:30 40.2406 -88.9489 214° Southwest 417 480 32,000  Level Chicago Center
Mon 19:13:32 40.1436 -89.0319 213° Southwest 416 479 32,000  Level Chicago Center
Mon 19:14:13 40.0858 -89.0811 213° Southwest 411 473 32,000  Level Kansas City Center
Mon 19:15:15 39.9906 -89.1631 213° Southwest 409 471 32,000  Level Kansas City Center
Mon 19:16:17 39.8950 -89.2453 213° Southwest 408 470 32,000  Level Kansas City Center
Mon 19:17:19 39.7797 -89.3422 213° Southwest 409 471 32,000  Level Kansas City Center
Mon 19:18:21 39.6906 -89.4189 213° Southwest 410 472 32,000  Level Kansas City Center
Mon 19:19:36 39.5764 -89.5156 213° Southwest 409 471 32,000  Level Kansas City Center
Mon 19:20:48 39.4794 -89.5969 213° Southwest 413 475 32,000  Level Kansas City Center
Mon 19:21:40 39.3617 -89.6967 213° Southwest 419 482 32,000  Level Kansas City Center
Mon 19:22:42 39.2644 -89.7789 213° Southwest 419 482 32,000  Level Kansas City Center
Mon 19:23:44 39.1578 -89.8697 213° Southwest 418 481 32,000  Level Kansas City Center
Mon 19:24:46 39.0606 -89.9517 213° Southwest 418 481 32,000  Level Kansas City Center
Mon 19:25:48 38.9775 -90.0308 217° Southwest 414 476 32,000  Level Kansas City Center
Mon 19:26:50 38.8894 -90.1531 227° Southwest 409 471 32,000  Level Kansas City Center
Mon 19:27:52 38.8106 -90.2608 227° Southwest 411 473 32,000  Level Kansas City Center
Mon 19:28:54 38.7303 -90.3681 226° Southwest 414 476 32,000  Level Kansas City Center
Mon 19:29:56 38.6508 -90.4767 227° Southwest 430 495 32,000  Level Kansas City Center
Mon 19:30:58 38.5539 -90.6069 226° Southwest 422 486 32,000  Level Kansas City Center
Mon 19:32:00 38.4772 -90.7111 227° Southwest 423 487 32,000  Level Kansas City Center
Mon 19:33:02 38.3978 -90.8172 226° Southwest 419 482 32,000  Level Kansas City Center
Mon 19:34:04 38.3178 -90.9253 227° Southwest 420 483 32,000  Level Kansas City Center
Mon 19:35:06 38.2378 -91.0300 226° Southwest 415 478 32,000  Level Kansas City Center
Mon 19:36:08 38.1522 -91.1431 226° Southwest 414 476 32,000  Level Kansas City Center
Mon 19:37:10 38.0706 -91.2472 225° Southwest 414 476 32,000  Level Kansas City Center
Mon 19:38:12 37.9756 -91.3761 227° Southwest 415 478 32,000  Level Kansas City Center
Mon 19:39:14 37.8972 -91.4828 227° Southwest 413 475 32,000  Level Kansas City Center
Mon 19:40:16 37.8158 -91.5875 225° Southwest 413 475 32,000  Level Kansas City Center
Mon 19:41:18 37.7353 -91.6944 226° Southwest 415 478 32,000  Level Kansas City Center
Mon 19:42:20 37.6547 -91.8017 227° Southwest 417 480 32,000  Level Kansas City Center
Mon 19:43:22 37.5719 -91.9081 226° Southwest 419 482 32,000  Level Kansas City Center
Mon 19:44:24 37.4914 -92.0131 226° Southwest 415 478 32,000  Level Kansas City Center
Mon 19:45:26 37.4025 -92.1108 221° Southwest 418 481 32,000  Level Kansas City Center
Mon 19:46:28 37.3156 -92.2067 221° Southwest 415 478 32,000  Level Kansas City Center
Mon 19:47:30 37.2122 -92.3231 222° Southwest 413 475 32,000  Level Kansas City Center
Mon 19:48:32 37.1253 -92.4183 221° Southwest 413 475 32,000  Level Kansas City Center
Mon 19:49:34 37.0386 -92.5131 221° Southwest 412 474 32,000  Level Kansas City Center
Mon 19:50:35 36.9514 -92.6083 221° Southwest 413 475 32,000  Level Kansas City Center
Mon 19:51:33 36.8619 -92.7089 222° Southwest 417 480 32,000  Level Memphis Center
Mon 19:52:33 36.7747 -92.8022 221° Southwest 417 480 32,000  Level Memphis Center
Mon 19:53:33 36.6894 -92.8978 222° Southwest 417 480 32,000  Level Memphis Center
Mon 19:54:33 36.6000 -92.9933 221° Southwest 422 486 32,000  Level Memphis Center
Mon 19:55:33 36.5103 -93.0858 220° Southwest 422 486 32,000  Level Memphis Center
Mon 19:56:33 36.4292 -93.1733 221° Southwest 422 486 32,000  Level Memphis Center
Mon 19:57:33 36.3417 -93.2683 221° Southwest 422 486 32,000  Level Memphis Center
Mon 19:58:33 36.2539 -93.3606 220° Southwest 422 486 32,000  Level Memphis Center
Mon 19:59:33 36.1639 -93.4575 221° Southwest 422 486 32,000  Level Memphis Center
Mon 20:00:33 36.0739 -93.5517 220° Southwest 422 486 32,000  Level Memphis Center
Mon 20:01:33 35.9861 -93.6456 221° Southwest 422 486 32,000  Level Memphis Center
Mon 20:02:33 35.8958 -93.7419 221° Southwest 422 486 32,000  Level Memphis Center
Mon 20:03:33 35.8058 -93.8356 220° Southwest 422 486 32,000  Level Memphis Center
Mon 20:04:33 35.7047 -93.9386 220° Southwest 430 495 32,000  Level Memphis Center
Mon 20:05:33 35.6167 -94.0319 221° Southwest 430 495 32,000  Level Memphis Center
Mon 20:06:33 35.5283 -94.1275 221° Southwest 430 495 32,000  Level Memphis Center
Mon 20:07:33 35.4358 -94.2203 219° Southwest 430 495 32,000  Level Memphis Center
Mon 20:08:33 35.3450 -94.3153 220° Southwest 430 495 32,000  Level Memphis Center
Mon 20:10:18 35.2031 -94.4764 223° Southwest 413 475 32,000  Level Fort Worth Center
Mon 20:11:18 35.1114 -94.5736 221° Southwest 420 483 32,000  Level Fort Worth Center
Mon 20:12:18 35.0217 -94.6731 222° Southwest 432 497 32,000  Level Fort Worth Center
Mon 20:13:18 34.9219 -94.7800 221° Southwest 432 497 32,000  Level Fort Worth Center
Mon 20:14:18 34.8403 -94.8736 223° Southwest 437 503 32,000 -200 Level Fort Worth Center
Mon 20:15:18 34.7611 -94.9847 229° Southwest 437 503 31,600 -700 Descending Fort Worth Center
Mon 20:16:18 34.7031 -95.1050 240° Southwest 432 497 30,600 -1,450 Descending Fort Worth Center
Mon 20:17:18 34.6383 -95.2278 237° Southwest 432 497 28,700 -1,850 Descending Fort Worth Center
Mon 20:18:18 34.5697 -95.3556 237° Southwest 447 514 26,900 -1,950 Descending Fort Worth Center
Mon 20:19:18 34.5006 -95.4758 235° Southwest 454 522 24,800 -1,450 Descending Fort Worth Center
Mon 20:20:18 34.3958 -95.5914 222° Southwest 454 522 24,000 -400 Descending Fort Worth Center
Mon 20:21:18 34.3033 -95.6914 222° Southwest 448 516 24,000  Level Fort Worth Center
Mon 20:22:18 34.2131 -95.7886 222° Southwest 442 509 24,000  Level Fort Worth Center
Mon 20:23:18 34.1222 -95.8856 221° Southwest 442 509 24,000 -50 Level Fort Worth Center
Mon 20:24:18 34.0297 -95.9875 222° Southwest 442 509 23,900 -1,200 Descending Fort Worth Center
Mon 20:25:18 33.9431 -96.0789 221° Southwest 432 497 21,600 -2,450 Descending Fort Worth Center
Mon 20:26:18 33.8522 -96.1756 221° Southwest 432 497 19,000 -2,550 Descending Fort Worth Center
Mon 20:27:18 33.7736 -96.2589 221° Southwest 410 472 16,500 -2,400 Descending Fort Worth Center
Mon 20:28:18 33.6931 -96.3450 222° Southwest 396 456 14,200 -2,500 Descending Fort Worth Center
Mon 20:29:18 33.6144 -96.4258 221° Southwest 382 440 11,500 -1,900 Descending Fort Worth Center
Mon 20:30:18 33.5419 -96.5039 222° Southwest 370 426 10,400 -750 Descending Fort Worth Center
Mon 20:31:18 33.4817 -96.5667 221° Southwest 317 365 10,000 -750 Descending Fort Worth Center
Mon 20:32:18 33.4236 -96.6269 221° Southwest 278 320 8,900 -1,350 Descending Fort Worth Center
Mon 20:33:18 33.3656 -96.6847 220° Southwest 273 314 7,300 -1,600 Descending Fort Worth Center
Mon 20:34:18 33.3117 -96.7422 222° Southwest 273 314 5,700 -1,150 Descending Fort Worth Center
Mon 20:35:18 33.2703 -96.8172 237° Southwest 265 305 5,000 -600 Descending Fort Worth Center
Mon 20:36:18 33.2247 -96.8844 231° Southwest 265 305 4,500 -500 Descending Fort Worth Center
Mon 20:37:18 33.1833 -96.9567 236° Southwest 272 313 4,000 -750 Descending Fort Worth Center
Mon 20:38:18 33.1269 -97.0042 215° Southwest 250 288 3,000 -1,000 Descending Fort Worth Center

Login

Don't have an account? Register now (free) for customized features, flight alerts, and more!